createdAt,value
2018-11-06T00:01:48.325Z,55.87
2018-11-06T00:04:16.675Z,55.43
2018-11-06T00:06:45.073Z,54.90
2018-11-06T00:09:13.468Z,56.60
2018-11-06T00:11:41.762Z,55.37
2018-11-06T00:14:10.091Z,55.87
2018-11-06T00:16:38.403Z,54.80
2018-11-06T00:19:06.727Z,55.20
2018-11-06T00:21:35.164Z,56.07
2018-11-06T00:24:03.511Z,53.57
2018-11-06T00:26:31.871Z,54.73
2018-11-06T00:29:00.257Z,55.10
2018-11-06T00:31:28.653Z,54.17
2018-11-06T00:33:57.131Z,55.27
2018-11-06T00:36:25.518Z,55.30
2018-11-06T00:38:53.837Z,53.63
2018-11-06T00:41:22.279Z,58.30
2018-11-06T00:43:50.645Z,58.37
2018-11-06T00:46:19.029Z,58.17
2018-11-06T00:48:47.436Z,54.90
2018-11-06T00:51:15.790Z,56.20
2018-11-06T00:53:44.200Z,52.60
2018-11-06T00:56:12.681Z,54.50
2018-11-06T00:58:41.137Z,53.07
2018-11-06T01:01:09.492Z,54.83
2018-11-06T01:03:43.178Z,53.13
2018-11-06T01:06:11.596Z,53.67
2018-11-06T01:08:39.969Z,53.17
2018-11-06T01:11:08.379Z,54.90
2018-11-06T01:13:36.709Z,56.07
2018-11-06T01:16:05.338Z,54.63
2018-11-06T01:18:33.721Z,55.20
2018-11-06T01:21:02.061Z,54.60
2018-11-06T01:23:30.466Z,58.90
2018-11-06T01:25:58.793Z,56.77
2018-11-06T01:28:27.109Z,59.33
2018-11-06T01:30:55.469Z,58.97
2018-11-06T01:33:23.908Z,59.60
2018-11-06T01:35:52.224Z,58.20
2018-11-06T01:38:20.604Z,58.47
2018-11-06T01:40:49.016Z,58.73
2018-11-06T01:43:17.313Z,57.73
2018-11-06T01:45:45.714Z,61.83
2018-11-06T01:48:14.061Z,57.50
2018-11-06T01:50:42.478Z,56.30
2018-11-06T01:53:10.898Z,54.67
2018-11-06T01:55:39.232Z,54.07
2018-11-06T01:58:07.769Z,52.83
2018-11-06T02:00:36.116Z,52.77
2018-11-06T02:03:04.612Z,57.53
2018-11-06T02:05:32.890Z,57.43
2018-11-06T02:08:01.294Z,58.07
2018-11-06T02:10:29.649Z,56.07
2018-11-06T02:12:57.943Z,53.63
2018-11-06T02:15:26.288Z,51.57
2018-11-06T02:17:54.694Z,52.90
2018-11-06T02:20:23.044Z,52.67
2018-11-06T02:22:51.504Z,50.67
2018-11-06T02:25:19.959Z,51.30
2018-11-06T02:27:48.257Z,52.10
2018-11-06T02:30:17.856Z,53.13
2018-11-06T02:32:46.938Z,55.20
2018-11-06T02:35:15.223Z,53.07
2018-11-06T02:37:43.674Z,52.53
2018-11-06T02:40:13.846Z,51.37
2018-11-06T02:42:42.599Z,53.17
2018-11-06T02:45:11.605Z,53.47
2018-11-06T02:47:40.676Z,55.83
2018-11-06T02:50:09.670Z,56.10
2018-11-06T02:52:38.007Z,55.93
2018-11-06T02:55:07.304Z,56.17
2018-11-06T02:57:35.610Z,54.33
2018-11-06T03:00:04.032Z,55.63
2018-11-06T03:02:32.510Z,56.80
2018-11-06T03:05:00.844Z,55.50
2018-11-06T03:07:29.233Z,54.50
2018-11-06T03:09:57.686Z,53.73
2018-11-06T03:12:26.029Z,53.80
2018-11-06T03:14:54.404Z,51.93
2018-11-06T03:17:22.748Z,52.17
2018-11-06T03:19:51.160Z,44.97
2018-11-06T03:22:19.470Z,48.50
2018-11-06T03:24:47.822Z,49.70
2018-11-06T03:27:16.170Z,52.03
2018-11-06T03:29:44.468Z,51.80
2018-11-06T03:32:12.804Z,50.37
2018-11-06T03:34:41.096Z,49.40
2018-11-06T03:37:09.594Z,47.17
2018-11-06T03:39:37.902Z,46.47
2018-11-06T03:42:06.264Z,47.43
2018-11-06T03:44:34.658Z,48.93
2018-11-06T03:47:03.030Z,49.70
2018-11-06T03:49:31.375Z,47.13
2018-11-06T03:51:59.752Z,46.47
2018-11-06T03:54:28.138Z,45.90
2018-11-06T03:56:56.657Z,44.77
2018-11-06T03:59:24.949Z,45.77
2018-11-06T04:01:53.313Z,45.93
2018-11-06T04:04:21.640Z,45.77
2018-11-06T04:06:50.026Z,45.73
2018-11-06T04:09:18.339Z,47.77
2018-11-06T04:11:46.637Z,45.90
2018-11-06T04:14:14.957Z,45.93
2018-11-06T04:16:43.275Z,45.00
2018-11-06T04:19:11.591Z,46.60
2018-11-06T04:21:40.659Z,48.93
2018-11-06T04:24:10.384Z,48.40
2018-11-06T04:26:39.267Z,47.63
2018-11-06T04:29:08.534Z,45.97
2018-11-06T04:31:37.610Z,44.20
2018-11-06T04:34:06.039Z,47.63
2018-11-06T04:36:34.405Z,49.60
2018-11-06T04:39:02.799Z,48.57
2018-11-06T04:41:31.100Z,49.00
2018-11-06T04:43:59.420Z,49.27
2018-11-06T04:46:27.813Z,52.03
2018-11-06T04:48:56.284Z,48.50
2018-11-06T04:51:24.638Z,47.83
2018-11-06T04:53:57.242Z,47.57
2018-11-06T04:56:25.604Z,49.53
2018-11-06T04:58:54.018Z,50.63
2018-11-06T05:01:22.522Z,53.30
2018-11-06T05:03:50.838Z,54.80
2018-11-06T05:06:19.563Z,53.63
2018-11-06T05:08:48.034Z,52.37
2018-11-06T05:11:16.332Z,53.40
2018-11-06T05:13:44.834Z,50.60
2018-11-06T05:16:13.325Z,49.83
2018-11-06T05:18:41.658Z,47.83
2018-11-06T05:21:09.962Z,49.60
2018-11-06T05:23:38.344Z,48.63
2018-11-06T05:26:06.679Z,46.40
2018-11-06T05:28:35.142Z,45.97
2018-11-06T05:31:03.680Z,46.67
2018-11-06T05:33:31.970Z,42.53
2018-11-06T05:36:00.272Z,42.57
2018-11-06T05:38:28.565Z,42.57
2018-11-06T05:40:59.856Z,45.17
2018-11-06T05:43:28.209Z,46.27
2018-11-06T05:45:56.705Z,44.83
2018-11-06T05:48:25.014Z,45.53
2018-11-06T05:50:53.385Z,42.77
2018-11-06T05:53:21.804Z,46.63
2018-11-06T05:55:50.309Z,43.67
2018-11-06T05:58:18.844Z,44.37
2018-11-06T06:00:47.595Z,44.53
2018-11-06T06:03:15.924Z,44.17
2018-11-06T06:05:44.396Z,45.67
2018-11-06T06:08:12.706Z,44.10
2018-11-06T06:10:41.083Z,43.67
2018-11-06T06:13:09.422Z,44.33
2018-11-06T06:15:37.712Z,43.37
2018-11-06T06:18:06.111Z,43.37
2018-11-06T06:20:34.487Z,45.33
2018-11-06T06:23:02.786Z,44.83
2018-11-06T06:25:31.125Z,44.50
2018-11-06T06:27:59.542Z,47.30
2018-11-06T06:30:27.840Z,44.37
2018-11-06T06:32:56.186Z,45.03
2018-11-06T06:35:24.650Z,46.10
2018-11-06T06:37:53.061Z,44.37
2018-11-06T06:40:21.430Z,42.70
2018-11-06T06:42:49.845Z,45.77
2018-11-06T06:45:19.313Z,42.73
2018-11-06T06:47:47.820Z,46.10
2018-11-06T06:50:17.490Z,44.73
2018-11-06T06:52:46.444Z,40.10
2018-11-06T06:55:15.539Z,43.50
2018-11-06T06:57:44.747Z,44.60
2018-11-06T07:00:15.475Z,45.00
2018-11-06T07:02:43.822Z,42.87
2018-11-06T07:05:13.397Z,44.07
2018-11-06T07:07:42.477Z,46.93
2018-11-06T07:10:12.658Z,48.50
2018-11-06T07:12:41.950Z,44.67
2018-11-06T07:15:12.864Z,44.07
2018-11-06T07:17:41.495Z,44.23
2018-11-06T07:20:12.365Z,42.60
2018-11-06T07:22:40.764Z,45.37
2018-11-06T07:25:11.009Z,44.27
2018-11-06T07:27:40.181Z,43.07
2018-11-06T07:30:10.493Z,42.63
2018-11-06T07:32:39.366Z,41.97
2018-11-06T07:35:08.635Z,41.87
2018-11-06T07:37:37.467Z,42.83
2018-11-06T07:40:06.741Z,38.50
2018-11-06T07:42:36.083Z,35.00
2018-11-06T07:45:04.705Z,35.50
2018-11-06T07:47:32.999Z,34.77
2018-11-06T07:50:01.421Z,33.77
2018-11-06T07:52:29.858Z,35.93
2018-11-06T07:54:58.165Z,30.90
2018-11-06T07:57:26.484Z,30.03
2018-11-06T07:59:54.872Z,31.17
2018-11-06T08:02:23.215Z,34.00
2018-11-06T08:04:51.681Z,35.03
2018-11-06T08:07:20.005Z,36.53
2018-11-06T08:09:48.365Z,39.20
2018-11-06T08:12:16.722Z,39.00
2018-11-06T08:14:45.169Z,41.13
2018-11-06T08:17:13.521Z,44.57
2018-11-06T08:19:41.931Z,46.27
2018-11-06T08:22:10.255Z,45.20
2018-11-06T08:24:38.614Z,43.93
2018-11-06T08:27:06.965Z,45.00
2018-11-06T08:29:35.313Z,43.77
2018-11-06T08:32:05.191Z,44.77
2018-11-06T08:34:33.343Z,42.40
2018-11-06T08:37:01.839Z,42.87
2018-11-06T08:39:30.181Z,42.87
2018-11-06T08:41:58.543Z,46.10
2018-11-06T08:44:26.917Z,46.10
2018-11-06T08:46:55.265Z,45.10
2018-11-06T08:49:23.597Z,45.43
2018-11-06T08:51:52.599Z,45.23
2018-11-06T08:54:21.005Z,45.63
2018-11-06T08:56:49.292Z,45.27
2018-11-06T08:59:17.581Z,44.87
2018-11-06T09:01:45.938Z,45.30
2018-11-06T09:04:14.345Z,44.97
2018-11-06T09:06:42.768Z,45.30
2018-11-06T09:09:11.402Z,46.17
2018-11-06T09:11:40.061Z,45.20
2018-11-06T09:14:08.368Z,39.97
2018-11-06T09:16:36.952Z,41.23
2018-11-06T09:19:05.527Z,41.60
2018-11-06T09:21:33.916Z,41.10
2018-11-06T09:24:02.293Z,40.60
2018-11-06T09:26:30.851Z,40.97
2018-11-06T09:28:59.186Z,41.57
2018-11-06T09:31:28.508Z,39.17
2018-11-06T09:33:57.110Z,37.97
2018-11-06T09:36:25.669Z,40.00
2018-11-06T09:38:54.007Z,38.83
2018-11-06T09:41:22.423Z,39.17
2018-11-06T09:43:50.772Z,38.53
2018-11-06T09:46:19.119Z,38.37
2018-11-06T09:48:47.444Z,37.23
2018-11-06T09:51:15.922Z,36.50
2018-11-06T09:53:44.254Z,37.67
2018-11-06T09:56:12.586Z,37.60
2018-11-06T09:58:40.913Z,36.30
2018-11-06T10:01:09.256Z,34.80
2018-11-06T10:03:37.606Z,32.33
2018-11-06T10:06:06.318Z,31.93
2018-11-06T10:08:34.635Z,35.03
2018-11-06T10:11:02.976Z,37.80
2018-11-06T10:13:31.323Z,39.23
2018-11-06T10:15:59.710Z,36.83
2018-11-06T10:18:28.034Z,38.67
2018-11-06T10:20:56.360Z,38.90
2018-11-06T10:23:24.806Z,39.43
2018-11-06T10:25:53.172Z,40.50
2018-11-06T10:28:21.568Z,40.53
2018-11-06T10:30:50.137Z,42.07
2018-11-06T10:33:25.005Z,41.03
2018-11-06T10:35:53.450Z,40.07
2018-11-06T10:38:21.735Z,39.77
2018-11-06T10:40:50.048Z,38.50
2018-11-06T10:43:18.374Z,40.37
2018-11-06T10:45:47.051Z,39.50
2018-11-06T10:48:15.363Z,38.73
2018-11-06T10:50:43.740Z,37.73
2018-11-06T10:53:12.116Z,41.87
2018-11-06T10:55:40.443Z,39.93
2018-11-06T10:58:08.837Z,41.63
2018-11-06T11:00:42.534Z,37.30
2018-11-06T11:03:16.246Z,36.57
2018-11-06T11:05:44.550Z,34.00
2018-11-06T11:08:12.857Z,35.40
2018-11-06T11:10:41.321Z,32.73
2018-11-06T11:13:09.692Z,33.93
2018-11-06T11:15:38.013Z,32.97
2018-11-06T11:18:06.364Z,30.37
2018-11-06T11:20:34.691Z,32.70
2018-11-06T11:23:03.007Z,32.30
2018-11-06T11:25:31.415Z,33.10
2018-11-06T11:27:59.716Z,37.00
2018-11-06T11:30:28.062Z,34.27
2018-11-06T11:32:56.422Z,35.03
2018-11-06T11:35:24.735Z,33.30
2018-11-06T11:37:53.164Z,33.60
2018-11-06T11:40:21.523Z,32.73
2018-11-06T11:42:49.858Z,35.20
2018-11-06T11:45:18.474Z,32.37
2018-11-06T11:47:46.897Z,34.97
2018-11-06T11:50:15.901Z,31.87
2018-11-06T11:52:44.385Z,33.27
2018-11-06T11:55:12.783Z,33.10
2018-11-06T11:57:41.325Z,33.83
2018-11-06T12:00:11.973Z,33.60
2018-11-06T12:02:40.299Z,32.47
2018-11-06T12:05:09.574Z,33.30
2018-11-06T12:07:38.024Z,35.23
2018-11-06T12:10:07.464Z,36.57
2018-11-06T12:12:35.814Z,35.67
2018-11-06T12:15:04.195Z,34.07
2018-11-06T12:17:32.580Z,31.77
2018-11-06T12:20:00.896Z,34.03
2018-11-06T12:22:29.216Z,34.97
2018-11-06T12:24:57.750Z,32.87
2018-11-06T12:27:25.944Z,33.97
2018-11-06T12:29:54.298Z,32.47
2018-11-06T12:32:22.699Z,32.83
2018-11-06T12:34:51.117Z,34.57
2018-11-06T12:37:19.437Z,32.53
2018-11-06T12:39:47.809Z,31.60
2018-11-06T12:42:16.255Z,32.03
2018-11-06T12:44:44.612Z,32.57
2018-11-06T12:47:12.938Z,31.77
2018-11-06T12:49:41.264Z,31.53
2018-11-06T12:52:09.671Z,30.93
2018-11-06T12:54:38.061Z,31.47
2018-11-06T12:57:06.390Z,32.40
2018-11-06T12:59:34.768Z,35.53
2018-11-06T13:02:03.138Z,33.70
2018-11-06T13:04:31.473Z,32.80
2018-11-06T13:06:59.765Z,32.33
2018-11-06T13:09:28.123Z,31.00
2018-11-06T13:11:56.449Z,32.07
2018-11-06T13:14:24.743Z,32.23
2018-11-06T13:16:53.135Z,33.57
2018-11-06T13:19:21.437Z,32.50
2018-11-06T13:21:49.725Z,31.77
2018-11-06T13:24:18.068Z,32.13
2018-11-06T13:26:46.596Z,34.23
2018-11-06T13:29:14.916Z,32.27
2018-11-06T13:31:43.242Z,32.53
2018-11-06T13:34:11.686Z,32.40
2018-11-06T13:36:40.022Z,33.27
2018-11-06T13:39:10.118Z,33.13
2018-11-06T13:41:38.505Z,34.13
2018-11-06T13:44:07.165Z,33.27
2018-11-06T13:46:35.381Z,32.53
2018-11-06T13:49:03.719Z,34.20
2018-11-06T13:51:32.063Z,33.90
2018-11-06T13:54:00.433Z,35.73
2018-11-06T13:56:28.868Z,34.63
2018-11-06T13:58:57.204Z,33.77
2018-11-06T14:01:25.599Z,44.07
2018-11-06T14:03:53.939Z,34.47
2018-11-06T14:06:22.371Z,32.87
2018-11-06T14:08:50.865Z,31.53
2018-11-06T14:11:19.409Z,31.47
2018-11-06T14:13:47.805Z,35.27
2018-11-06T14:16:16.164Z,33.80
2018-11-06T14:18:44.575Z,35.43
2018-11-06T14:21:12.012Z,29.10
2018-11-06T14:23:40.323Z,33.13
2018-11-06T14:26:08.651Z,32.57
2018-11-06T14:28:36.985Z,31.10
2018-11-06T14:31:05.517Z,30.30
2018-11-06T14:33:33.903Z,30.70
2018-11-06T14:36:02.473Z,34.37
2018-11-06T14:38:30.821Z,32.30
2018-11-06T14:40:59.156Z,31.33
2018-11-06T14:43:27.555Z,33.13
2018-11-06T14:45:55.919Z,34.13
2018-11-06T14:48:24.462Z,32.30
2018-11-06T14:50:52.851Z,33.43
2018-11-06T14:53:21.262Z,32.73
2018-11-06T14:55:49.778Z,30.40
2018-11-06T14:58:18.074Z,33.10
2018-11-06T15:00:46.395Z,32.73
2018-11-06T15:03:14.763Z,33.57
2018-11-06T15:05:43.160Z,34.00
2018-11-06T15:08:11.420Z,34.83
2018-11-06T15:10:39.759Z,38.00
2018-11-06T15:13:08.084Z,38.90
2018-11-06T15:15:36.469Z,38.93
2018-11-06T15:18:05.226Z,40.60
2018-11-06T15:20:39.056Z,39.43
2018-11-06T15:23:07.327Z,44.40
2018-11-06T15:25:35.669Z,44.60
2018-11-06T15:28:04.013Z,36.47
2018-11-06T15:30:32.422Z,35.70
2018-11-06T15:33:00.772Z,34.20
2018-11-06T15:35:29.122Z,37.80
2018-11-06T15:37:57.461Z,44.83
2018-11-06T15:40:25.794Z,38.80
2018-11-06T15:42:54.163Z,38.13
2018-11-06T15:45:22.505Z,42.37
2018-11-06T15:47:50.950Z,35.77
2018-11-06T15:50:20.369Z,33.80
2018-11-06T15:52:49.460Z,32.00
2018-11-06T15:55:17.977Z,33.30
2018-11-06T15:57:46.505Z,33.80
2018-11-06T16:00:17.141Z,36.63
2018-11-06T16:02:45.911Z,34.20
2018-11-06T16:05:14.486Z,36.33
2018-11-06T16:07:43.002Z,35.80
2018-11-06T16:10:15.690Z,32.20
2018-11-06T16:12:44.699Z,32.40
2018-11-06T16:15:13.791Z,32.97
2018-11-06T16:17:42.094Z,34.67
2018-11-06T16:20:13.019Z,35.53
2018-11-06T16:22:41.712Z,44.80
2018-11-06T16:25:11.684Z,39.90
2018-11-06T16:27:40.485Z,38.60
2018-11-06T16:30:11.968Z,40.13
2018-11-06T16:32:40.369Z,36.40
2018-11-06T16:35:10.469Z,39.97
2018-11-06T16:37:39.263Z,39.17
2018-11-06T16:40:08.329Z,47.67
2018-11-06T16:42:36.842Z,42.47
2018-11-06T16:45:06.688Z,40.93
2018-11-06T16:47:35.099Z,42.93
2018-11-06T16:50:03.575Z,40.67
2018-11-06T16:52:31.921Z,45.87
2018-11-06T16:55:00.233Z,43.83
2018-11-06T16:57:28.830Z,42.63
2018-11-06T16:59:57.281Z,48.57
2018-11-06T17:02:25.687Z,52.33
2018-11-06T17:04:54.104Z,54.67
2018-11-06T17:07:22.523Z,43.90
2018-11-06T17:09:50.877Z,46.40
2018-11-06T17:12:19.302Z,43.90
2018-11-06T17:14:47.659Z,44.37
2018-11-06T17:17:16.111Z,40.90
2018-11-06T17:19:44.471Z,45.10
2018-11-06T17:22:12.874Z,37.63
2018-11-06T17:24:41.298Z,41.67
2018-11-06T17:27:09.792Z,38.83
2018-11-06T17:29:38.357Z,45.17
2018-11-06T17:32:06.704Z,44.57
2018-11-06T17:34:35.215Z,48.50
2018-11-06T17:37:03.692Z,42.53
2018-11-06T17:39:32.138Z,40.27
2018-11-06T17:42:00.661Z,37.73
2018-11-06T17:44:29.054Z,45.97
2018-11-06T17:46:57.515Z,45.60
2018-11-06T17:49:25.910Z,41.70
2018-11-06T17:51:54.207Z,39.03
2018-11-06T17:54:22.672Z,38.37
2018-11-06T17:56:51.061Z,39.97
2018-11-06T17:59:19.878Z,36.73
2018-11-06T18:01:48.274Z,38.27
2018-11-06T18:04:16.816Z,41.10
2018-11-06T18:06:45.130Z,38.23
2018-11-06T18:09:13.982Z,47.40
2018-11-06T18:11:42.441Z,45.23
2018-11-06T18:14:10.808Z,35.30
2018-11-06T18:16:39.178Z,32.47
2018-11-06T18:19:07.520Z,34.73
2018-11-06T18:21:35.863Z,35.80
2018-11-06T18:24:04.270Z,34.53
2018-11-06T18:26:32.591Z,35.07
2018-11-06T18:29:01.100Z,34.27
2018-11-06T18:31:29.483Z,33.40
2018-11-06T18:33:58.755Z,34.97
2018-11-06T18:36:27.240Z,34.47
2018-11-06T18:38:55.630Z,32.83
2018-11-06T18:41:23.949Z,34.57
2018-11-06T18:43:52.354Z,33.77
2018-11-06T18:46:20.773Z,33.33
2018-11-06T18:48:49.168Z,33.30
2018-11-06T18:51:17.572Z,34.30
2018-11-06T18:53:46.041Z,33.83
2018-11-06T18:56:14.389Z,34.60
2018-11-06T18:58:42.746Z,33.23
2018-11-06T19:01:11.330Z,33.53
2018-11-06T19:03:39.687Z,32.77
2018-11-06T19:06:08.083Z,35.27
2018-11-06T19:08:36.448Z,34.43
2018-11-06T19:11:04.821Z,34.60
2018-11-06T19:13:33.169Z,34.17
2018-11-06T19:16:01.539Z,34.90
2018-11-06T19:18:29.967Z,34.40
2018-11-06T19:20:58.516Z,34.57
2018-11-06T19:23:26.912Z,35.73
2018-11-06T19:25:55.287Z,35.60
2018-11-06T19:28:23.624Z,34.23
2018-11-06T19:30:52.121Z,35.23
2018-11-06T19:33:20.487Z,35.67
2018-11-06T19:35:48.870Z,36.13
2018-11-06T19:38:17.243Z,33.80
2018-11-06T19:40:45.735Z,35.60
2018-11-06T19:43:14.218Z,35.00
2018-11-06T19:45:42.606Z,34.53
2018-11-06T19:48:11.081Z,34.50
2018-11-06T19:50:39.544Z,35.63
2018-11-06T19:53:08.037Z,36.20
2018-11-06T19:55:36.429Z,36.40
2018-11-06T19:58:05.134Z,38.27
2018-11-06T20:00:33.558Z,36.07
2018-11-06T20:03:01.964Z,35.67
2018-11-06T20:05:30.560Z,36.60
2018-11-06T20:07:59.116Z,35.70
2018-11-06T20:10:27.870Z,35.47
2018-11-06T20:12:56.823Z,35.80
2018-11-06T20:15:25.255Z,35.73
2018-11-06T20:17:54.078Z,38.70
2018-11-06T20:20:24.928Z,37.10
2018-11-06T20:22:53.618Z,36.60
2018-11-06T20:25:22.458Z,35.33
2018-11-06T20:27:51.086Z,37.07
2018-11-06T20:30:21.480Z,36.23
2018-11-06T20:32:50.419Z,35.67
2018-11-06T20:35:19.232Z,36.60
2018-11-06T20:37:47.846Z,34.83
2018-11-06T20:40:19.370Z,36.47
2018-11-06T20:42:48.647Z,35.87
2018-11-06T20:45:18.539Z,35.53
2018-11-06T20:47:47.560Z,36.20
2018-11-06T20:50:18.474Z,37.47
2018-11-06T20:52:47.155Z,36.73
2018-11-06T20:55:16.472Z,35.63
2018-11-06T20:57:45.488Z,36.73
2018-11-06T21:00:20.256Z,36.90
2018-11-06T21:02:49.488Z,36.53
2018-11-06T21:05:18.362Z,37.33
2018-11-06T21:07:47.574Z,37.00
2018-11-06T21:10:17.523Z,37.87
2018-11-06T21:12:46.478Z,36.10
2018-11-06T21:15:15.074Z,36.97
2018-11-06T21:17:44.184Z,36.37
2018-11-06T21:20:13.741Z,36.83
2018-11-06T21:22:42.386Z,37.07
2018-11-06T21:25:11.921Z,36.40
2018-11-06T21:27:41.217Z,36.83
2018-11-06T21:30:11.601Z,36.90
2018-11-06T21:32:41.734Z,34.97
2018-11-06T21:35:10.643Z,35.67
2018-11-06T21:37:39.869Z,37.43
2018-11-06T21:40:12.288Z,36.43
2018-11-06T21:42:41.002Z,36.70
2018-11-06T21:45:10.658Z,35.60
2018-11-06T21:47:39.778Z,35.30
2018-11-06T21:50:10.313Z,37.20
2018-11-06T21:52:39.000Z,35.53
2018-11-06T21:55:08.867Z,35.83
2018-11-06T21:57:37.920Z,37.43
2018-11-06T22:00:09.511Z,36.37
2018-11-06T22:02:38.709Z,35.10
2018-11-06T22:05:09.426Z,35.93
2018-11-06T22:07:37.983Z,36.37
2018-11-06T22:10:07.719Z,36.10
2018-11-06T22:12:36.335Z,36.80
2018-11-06T22:15:05.172Z,35.67
2018-11-06T22:17:33.541Z,38.00
2018-11-06T22:20:01.975Z,37.07
2018-11-06T22:22:30.329Z,38.30
2018-11-06T22:24:58.983Z,35.57
2018-11-06T22:27:27.714Z,34.40
2018-11-06T22:29:56.152Z,37.07
2018-11-06T22:32:24.540Z,35.93
2018-11-06T22:34:53.145Z,36.87
2018-11-06T22:37:21.697Z,37.20
2018-11-06T22:39:50.149Z,34.70
2018-11-06T22:42:18.567Z,37.00
2018-11-06T22:44:47.363Z,34.67
2018-11-06T22:47:15.825Z,36.37
2018-11-06T22:49:44.270Z,35.87
2018-11-06T22:52:12.686Z,35.53
2018-11-06T22:54:41.228Z,35.20
2018-11-06T22:57:09.577Z,35.27
2018-11-06T22:59:37.980Z,36.23
2018-11-06T23:02:06.391Z,35.10
2018-11-06T23:04:34.811Z,38.30
2018-11-06T23:07:03.316Z,36.20
2018-11-06T23:09:31.652Z,35.03
2018-11-06T23:12:00.060Z,35.73
2018-11-06T23:14:28.410Z,36.50
2018-11-06T23:16:56.734Z,35.57
2018-11-06T23:19:25.075Z,36.23
2018-11-06T23:21:53.426Z,36.03
2018-11-06T23:24:21.803Z,35.67
2018-11-06T23:26:50.146Z,37.00
2018-11-06T23:29:18.566Z,37.50
2018-11-06T23:31:47.125Z,35.77
2018-11-06T23:34:15.405Z,36.60
2018-11-06T23:36:43.764Z,36.20
2018-11-06T23:39:12.177Z,34.77
2018-11-06T23:41:40.462Z,36.90
2018-11-06T23:44:08.794Z,35.23
2018-11-06T23:46:37.177Z,36.10
2018-11-06T23:49:05.641Z,39.37
2018-11-06T23:51:34.083Z,38.27
2018-11-06T23:54:02.430Z,36.80
2018-11-06T23:56:30.825Z,37.53
2018-11-06T23:58:59.094Z,35.10
